< < Back
Terminal Aerodrome Forecast


Current Version              Previous Versions:   1  2  3  4  5  6  7  8  9  

Terminal Aerodrome Forecast

329
FTUS42 KTAE 272355
TAFABY
TAF
KABY 272355Z 2800/2824 31008G16KT P6SM SCT080
     FM280200 30009KT P6SM SKC=

Latest METAR

077
SAUS70 KWBC 281800 RRF
MTRABY
METAR KABY 281753Z VRB05KT 10SM CLR 13/M02 A3021 RMK AO2 SLP231
T01281022 10133 20044 55004


USA.gov is the U.S. government's official web portal to all federal, state and local government web resources and services.